sensor_id;sensor_type;location;lat;lon;timestamp;P1;durP1;ratioP1;P2;durP2;ratioP2
16957;SDS011;8595;52.542;11.974;2023-10-09T00:00:56;9.80;;;5.80;;
16957;SDS011;8595;52.542;11.974;2023-10-09T00:03:30;9.48;;;5.55;;
16957;SDS011;8595;52.542;11.974;2023-10-09T00:05:57;8.15;;;5.82;;
16957;SDS011;8595;52.542;11.974;2023-10-09T00:08:24;9.45;;;6.22;;
16957;SDS011;8595;52.542;11.974;2023-10-09T00:10:55;11.65;;;6.35;;
16957;SDS011;8595;52.542;11.974;2023-10-09T00:13:38;8.52;;;6.35;;
16957;SDS011;8595;52.542;11.974;2023-10-09T00:16:14;8.98;;;6.25;;
16957;SDS011;8595;52.542;11.974;2023-10-09T00:18:50;9.43;;;5.80;;
16957;SDS011;8595;52.542;11.974;2023-10-09T00:21:18;11.43;;;6.45;;
16957;SDS011;8595;52.542;11.974;2023-10-09T00:23:48;10.07;;;6.22;;
16957;SDS011;8595;52.542;11.974;2023-10-09T00:26:18;11.27;;;6.13;;
16957;SDS011;8595;52.542;11.974;2023-10-09T00:28:45;10.45;;;6.28;;
16957;SDS011;8595;52.542;11.974;2023-10-09T00:31:16;9.75;;;6.00;;
16957;SDS011;8595;52.542;11.974;2023-10-09T00:33:54;9.90;;;6.05;;
16957;SDS011;8595;52.542;11.974;2023-10-09T00:36:26;8.38;;;5.75;;
16957;SDS011;8595;52.542;11.974;2023-10-09T00:38:54;9.70;;;6.03;;
16957;SDS011;8595;52.542;11.974;2023-10-09T00:41:25;7.40;;;5.70;;
16957;SDS011;8595;52.542;11.974;2023-10-09T00:43:54;13.23;;;5.93;;
16957;SDS011;8595;52.542;11.974;2023-10-09T00:46:24;9.60;;;5.20;;
16957;SDS011;8595;52.542;11.974;2023-10-09T00:48:57;10.20;;;5.60;;
16957;SDS011;8595;52.542;11.974;2023-10-09T00:51:28;11.02;;;5.90;;
16957;SDS011;8595;52.542;11.974;2023-10-09T00:54:01;8.02;;;6.53;;
16957;SDS011;8595;52.542;11.974;2023-10-09T00:56:38;9.27;;;5.75;;
16957;SDS011;8595;52.542;11.974;2023-10-09T00:59:09;10.25;;;6.07;;
16957;SDS011;8595;52.542;11.974;2023-10-09T01:01:40;8.57;;;5.35;;
16957;SDS011;8595;52.542;11.974;2023-10-09T01:04:15;11.25;;;5.47;;
16957;SDS011;8595;52.542;11.974;2023-10-09T01:06:43;10.27;;;5.57;;
16957;SDS011;8595;52.542;11.974;2023-10-09T01:09:12;8.07;;;4.63;;
16957;SDS011;8595;52.542;11.974;2023-10-09T01:11:41;10.50;;;5.40;;
16957;SDS011;8595;52.542;11.974;2023-10-09T01:14:15;7.10;;;5.00;;
16957;SDS011;8595;52.542;11.974;2023-10-09T01:16:42;6.90;;;4.47;;
16957;SDS011;8595;52.542;11.974;2023-10-09T01:19:09;6.78;;;4.40;;
16957;SDS011;8595;52.542;11.974;2023-10-09T01:21:46;7.18;;;4.20;;
16957;SDS011;8595;52.542;11.974;2023-10-09T01:24:15;6.63;;;4.22;;
16957;SDS011;8595;52.542;11.974;2023-10-09T01:26:44;8.07;;;4.57;;
16957;SDS011;8595;52.542;11.974;2023-10-09T01:29:12;4.78;;;3.88;;
16957;SDS011;8595;52.542;11.974;2023-10-09T01:31:44;7.72;;;4.47;;
16957;SDS011;8595;52.542;11.974;2023-10-09T01:34:17;8.40;;;4.38;;
16957;SDS011;8595;52.542;11.974;2023-10-09T01:36:49;8.85;;;3.88;;
16957;SDS011;8595;52.542;11.974;2023-10-09T01:39:21;8.15;;;3.83;;
16957;SDS011;8595;52.542;11.974;2023-10-09T01:41:51;5.75;;;3.88;;
16957;SDS011;8595;52.542;11.974;2023-10-09T01:44:24;5.75;;;3.95;;
16957;SDS011;8595;52.542;11.974;2023-10-09T01:46:52;6.93;;;3.88;;
16957;SDS011;8595;52.542;11.974;2023-10-09T01:49:22;5.20;;;4.38;;
16957;SDS011;8595;52.542;11.974;2023-10-09T01:51:56;11.02;;;5.05;;
16957;SDS011;8595;52.542;11.974;2023-10-09T01:54:29;6.18;;;5.30;;
16957;SDS011;8595;52.542;11.974;2023-10-09T01:57:04;6.53;;;4.80;;
16957;SDS011;8595;52.542;11.974;2023-10-09T01:59:34;6.40;;;4.20;;
16957;SDS011;8595;52.542;11.974;2023-10-09T02:02:03;7.22;;;4.25;;
16957;SDS011;8595;52.542;11.974;2023-10-09T02:04:39;6.30;;;4.60;;
16957;SDS011;8595;52.542;11.974;2023-10-09T02:07:06;9.65;;;5.20;;
16957;SDS011;8595;52.542;11.974;2023-10-09T02:09:35;6.50;;;4.60;;
16957;SDS011;8595;52.542;11.974;2023-10-09T02:12:09;12.43;;;5.07;;
16957;SDS011;8595;52.542;11.974;2023-10-09T02:14:36;5.65;;;4.68;;
16957;SDS011;8595;52.542;11.974;2023-10-09T02:17:06;7.05;;;4.57;;
16957;SDS011;8595;52.542;11.974;2023-10-09T02:19:42;6.95;;;4.50;;
16957;SDS011;8595;52.542;11.974;2023-10-09T02:22:13;6.85;;;4.93;;
16957;SDS011;8595;52.542;11.974;2023-10-09T02:24:43;9.07;;;5.28;;
16957;SDS011;8595;52.542;11.974;2023-10-09T02:27:23;7.50;;;4.78;;
16957;SDS011;8595;52.542;11.974;2023-10-09T02:30:11;6.93;;;3.70;;
16957;SDS011;8595;52.542;11.974;2023-10-09T02:32:43;8.52;;;4.85;;
16957;SDS011;8595;52.542;11.974;2023-10-09T02:35:14;7.18;;;4.55;;
16957;SDS011;8595;52.542;11.974;2023-10-09T02:37:56;11.23;;;4.63;;
16957;SDS011;8595;52.542;11.974;2023-10-09T02:40:27;7.45;;;4.25;;
16957;SDS011;8595;52.542;11.974;2023-10-09T02:42:57;7.32;;;4.10;;
16957;SDS011;8595;52.542;11.974;2023-10-09T02:45:24;6.53;;;4.68;;
16957;SDS011;8595;52.542;11.974;2023-10-09T02:47:57;6.75;;;4.65;;
16957;SDS011;8595;52.542;11.974;2023-10-09T02:50:25;10.30;;;4.45;;
16957;SDS011;8595;52.542;11.974;2023-10-09T02:52:53;8.32;;;4.30;;
16957;SDS011;8595;52.542;11.974;2023-10-09T02:55:25;6.43;;;4.03;;
16957;SDS011;8595;52.542;11.974;2023-10-09T02:57:54;9.02;;;4.38;;
16957;SDS011;8595;52.542;11.974;2023-10-09T03:00:30;6.60;;;4.57;;
16957;SDS011;8595;52.542;11.974;2023-10-09T03:03:01;6.55;;;4.53;;
16957;SDS011;8595;52.542;11.974;2023-10-09T03:05:31;9.32;;;4.38;;
16957;SDS011;8595;52.542;11.974;2023-10-09T03:07:58;6.72;;;4.47;;
16957;SDS011;8595;52.542;11.974;2023-10-09T03:10:25;7.43;;;4.60;;
16957;SDS011;8595;52.542;11.974;2023-10-09T03:12:53;7.60;;;4.53;;
16957;SDS011;8595;52.542;11.974;2023-10-09T03:18:42;7.90;;;4.40;;
16957;SDS011;8595;52.542;11.974;2023-10-09T03:21:10;10.05;;;5.15;;
16957;SDS011;8595;52.542;11.974;2023-10-09T03:23:37;6.57;;;4.72;;
16957;SDS011;8595;52.542;11.974;2023-10-09T03:26:04;9.27;;;4.88;;
16957;SDS011;8595;52.542;11.974;2023-10-09T03:28:34;7.28;;;5.30;;
16957;SDS011;8595;52.542;11.974;2023-10-09T03:31:01;9.25;;;4.93;;
16957;SDS011;8595;52.542;11.974;2023-10-09T03:33:28;7.75;;;4.45;;
16957;SDS011;8595;52.542;11.974;2023-10-09T03:35:58;9.73;;;5.10;;
16957;SDS011;8595;52.542;11.974;2023-10-09T03:38:25;7.97;;;5.15;;
16957;SDS011;8595;52.542;11.974;2023-10-09T03:40:54;6.32;;;4.28;;
16957;SDS011;8595;52.542;11.974;2023-10-09T03:43:21;8.73;;;4.68;;
16957;SDS011;8595;52.542;11.974;2023-10-09T03:45:49;8.07;;;4.38;;
16957;SDS011;8595;52.542;11.974;2023-10-09T03:48:18;5.63;;;4.18;;
16957;SDS011;8595;52.542;11.974;2023-10-09T03:50:50;8.80;;;4.57;;
16957;SDS011;8595;52.542;11.974;2023-10-09T03:53:33;8.57;;;3.95;;
16957;SDS011;8595;52.542;11.974;2023-10-09T03:56:02;6.53;;;4.55;;
16957;SDS011;8595;52.542;11.974;2023-10-09T03:58:30;7.05;;;3.70;;
16957;SDS011;8595;52.542;11.974;2023-10-09T04:01:01;7.43;;;4.82;;
16957;SDS011;8595;52.542;11.974;2023-10-09T04:03:34;6.50;;;4.00;;
16957;SDS011;8595;52.542;11.974;2023-10-09T04:06:02;8.25;;;4.88;;
16957;SDS011;8595;52.542;11.974;2023-10-09T04:08:29;6.53;;;4.65;;
16957;SDS011;8595;52.542;11.974;2023-10-09T04:10:58;6.88;;;4.07;;
16957;SDS011;8595;52.542;11.974;2023-10-09T04:13:31;5.65;;;4.10;;
16957;SDS011;8595;52.542;11.974;2023-10-09T04:16:02;7.38;;;3.90;;
16957;SDS011;8595;52.542;11.974;2023-10-09T04:18:38;6.30;;;4.38;;
16957;SDS011;8595;52.542;11.974;2023-10-09T04:21:05;6.35;;;4.03;;
16957;SDS011;8595;52.542;11.974;2023-10-09T04:23:43;7.95;;;4.20;;
16957;SDS011;8595;52.542;11.974;2023-10-09T04:26:28;8.00;;;4.05;;
16957;SDS011;8595;52.542;11.974;2023-10-09T04:28:59;6.68;;;4.20;;
16957;SDS011;8595;52.542;11.974;2023-10-09T04:31:28;5.60;;;3.75;;
16957;SDS011;8595;52.542;11.974;2023-10-09T04:34:02;7.00;;;3.97;;
16957;SDS011;8595;52.542;11.974;2023-10-09T04:36:48;6.15;;;3.95;;
16957;SDS011;8595;52.542;11.974;2023-10-09T04:41:57;6.22;;;3.65;;
16957;SDS011;8595;52.542;11.974;2023-10-09T04:44:39;7.10;;;4.13;;
16957;SDS011;8595;52.542;11.974;2023-10-09T04:47:25;7.65;;;4.40;;
16957;SDS011;8595;52.542;11.974;2023-10-09T04:50:01;6.88;;;4.10;;
16957;SDS011;8595;52.542;11.974;2023-10-09T04:52:31;6.15;;;4.18;;
16957;SDS011;8595;52.542;11.974;2023-10-09T04:55:16;7.68;;;4.43;;
16957;SDS011;8595;52.542;11.974;2023-10-09T04:57:45;6.25;;;3.92;;
16957;SDS011;8595;52.542;11.974;2023-10-09T05:00:26;7.63;;;4.35;;
16957;SDS011;8595;52.542;11.974;2023-10-09T05:03:13;6.72;;;3.70;;
16957;SDS011;8595;52.542;11.974;2023-10-09T05:05:50;7.30;;;3.60;;
16957;SDS011;8595;52.542;11.974;2023-10-09T05:08:25;6.22;;;4.05;;
16957;SDS011;8595;52.542;11.974;2023-10-09T05:10:54;8.10;;;3.90;;
16957;SDS011;8595;52.542;11.974;2023-10-09T05:13:31;6.20;;;3.88;;
16957;SDS011;8595;52.542;11.974;2023-10-09T05:16:08;4.97;;;4.15;;
16957;SDS011;8595;52.542;11.974;2023-10-09T05:18:44;6.47;;;3.72;;
16957;SDS011;8595;52.542;11.974;2023-10-09T05:21:21;4.53;;;4.05;;
16957;SDS011;8595;52.542;11.974;2023-10-09T05:24:10;6.30;;;3.90;;
16957;SDS011;8595;52.542;11.974;2023-10-09T05:26:45;7.57;;;3.88;;
16957;SDS011;8595;52.542;11.974;2023-10-09T05:29:17;9.27;;;4.20;;
16957;SDS011;8595;52.542;11.974;2023-10-09T05:32:00;6.18;;;4.57;;
16957;SDS011;8595;52.542;11.974;2023-10-09T05:34:31;5.78;;;3.97;;
16957;SDS011;8595;52.542;11.974;2023-10-09T05:37:21;5.45;;;4.30;;
16957;SDS011;8595;52.542;11.974;2023-10-09T05:39:50;8.68;;;4.90;;
16957;SDS011;8595;52.542;11.974;2023-10-09T05:42:44;7.07;;;4.57;;
16957;SDS011;8595;52.542;11.974;2023-10-09T05:45:22;6.55;;;4.03;;
16957;SDS011;8595;52.542;11.974;2023-10-09T05:48:07;8.95;;;4.43;;
16957;SDS011;8595;52.542;11.974;2023-10-09T05:51:05;5.88;;;3.97;;
16957;SDS011;8595;52.542;11.974;2023-10-09T05:54:04;7.40;;;4.00;;
16957;SDS011;8595;52.542;11.974;2023-10-09T05:56:48;6.30;;;3.92;;
16957;SDS011;8595;52.542;11.974;2023-10-09T06:00:05;6.75;;;4.35;;
16957;SDS011;8595;52.542;11.974;2023-10-09T06:02:50;8.48;;;4.75;;
16957;SDS011;8595;52.542;11.974;2023-10-09T06:05:35;8.15;;;4.15;;
16957;SDS011;8595;52.542;11.974;2023-10-09T06:08:18;5.80;;;3.95;;
16957;SDS011;8595;52.542;11.974;2023-10-09T06:10:50;7.03;;;4.40;;
16957;SDS011;8595;52.542;11.974;2023-10-09T06:13:30;7.88;;;4.47;;
16957;SDS011;8595;52.542;11.974;2023-10-09T06:16:05;6.05;;;4.30;;
16957;SDS011;8595;52.542;11.974;2023-10-09T06:18:44;5.10;;;4.18;;
16957;SDS011;8595;52.542;11.974;2023-10-09T06:21:19;6.40;;;4.38;;
16957;SDS011;8595;52.542;11.974;2023-10-09T06:24:06;5.00;;;3.80;;
16957;SDS011;8595;52.542;11.974;2023-10-09T06:26:43;6.35;;;4.50;;
16957;SDS011;8595;52.542;11.974;2023-10-09T06:29:33;6.32;;;4.28;;
16957;SDS011;8595;52.542;11.974;2023-10-09T06:32:01;6.22;;;4.13;;
16957;SDS011;8595;52.542;11.974;2023-10-09T06:35:00;6.05;;;4.10;;
16957;SDS011;8595;52.542;11.974;2023-10-09T06:37:43;6.72;;;3.80;;
16957;SDS011;8595;52.542;11.974;2023-10-09T06:40:30;6.47;;;4.00;;
16957;SDS011;8595;52.542;11.974;2023-10-09T06:43:15;4.97;;;3.85;;
16957;SDS011;8595;52.542;11.974;2023-10-09T06:45:52;5.05;;;3.40;;
16957;SDS011;8595;52.542;11.974;2023-10-09T06:48:23;7.40;;;3.95;;
16957;SDS011;8595;52.542;11.974;2023-10-09T06:51:10;4.15;;;3.70;;
16957;SDS011;8595;52.542;11.974;2023-10-09T06:53:48;5.75;;;3.75;;
16957;SDS011;8595;52.542;11.974;2023-10-09T06:56:32;4.97;;;3.55;;
16957;SDS011;8595;52.542;11.974;2023-10-09T06:59:13;4.97;;;3.50;;
16957;SDS011;8595;52.542;11.974;2023-10-09T07:01:46;7.93;;;3.53;;
16957;SDS011;8595;52.542;11.974;2023-10-09T07:04:32;5.20;;;3.65;;
16957;SDS011;8595;52.542;11.974;2023-10-09T07:07:19;5.20;;;3.72;;
16957;SDS011;8595;52.542;11.974;2023-10-09T07:09:49;6.60;;;4.15;;
16957;SDS011;8595;52.542;11.974;2023-10-09T07:12:36;4.95;;;3.30;;
16957;SDS011;8595;52.542;11.974;2023-10-09T07:15:09;7.32;;;4.07;;
16957;SDS011;8595;52.542;11.974;2023-10-09T07:17:54;6.80;;;4.55;;
16957;SDS011;8595;52.542;11.974;2023-10-09T07:20:20;4.43;;;3.88;;
16957;SDS011;8595;52.542;11.974;2023-10-09T07:23:15;4.55;;;3.70;;
16957;SDS011;8595;52.542;11.974;2023-10-09T07:25:45;5.90;;;4.07;;
16957;SDS011;8595;52.542;11.974;2023-10-09T07:28:24;5.13;;;4.00;;
16957;SDS011;8595;52.542;11.974;2023-10-09T07:31:07;5.85;;;3.85;;
16957;SDS011;8595;52.542;11.974;2023-10-09T07:33:49;6.90;;;3.97;;
16957;SDS011;8595;52.542;11.974;2023-10-09T07:36:23;6.43;;;3.85;;
16957;SDS011;8595;52.542;11.974;2023-10-09T07:39:04;6.65;;;4.85;;
16957;SDS011;8595;52.542;11.974;2023-10-09T07:41:42;5.88;;;4.00;;
16957;SDS011;8595;52.542;11.974;2023-10-09T07:44:21;7.10;;;4.53;;
16957;SDS011;8595;52.542;11.974;2023-10-09T07:47:03;6.95;;;3.70;;
16957;SDS011;8595;52.542;11.974;2023-10-09T07:49:56;6.53;;;4.65;;
16957;SDS011;8595;52.542;11.974;2023-10-09T07:52:24;5.28;;;4.18;;
16957;SDS011;8595;52.542;11.974;2023-10-09T07:54:52;6.43;;;4.20;;
16957;SDS011;8595;52.542;11.974;2023-10-09T07:57:26;6.18;;;4.00;;
16957;SDS011;8595;52.542;11.974;2023-10-09T07:59:54;5.72;;;3.95;;
16957;SDS011;8595;52.542;11.974;2023-10-09T08:02:29;6.20;;;3.78;;
16957;SDS011;8595;52.542;11.974;2023-10-09T08:04:59;6.00;;;4.70;;
16957;SDS011;8595;52.542;11.974;2023-10-09T08:07:30;5.60;;;4.25;;
16957;SDS011;8595;52.542;11.974;2023-10-09T08:10:04;6.57;;;4.30;;
16957;SDS011;8595;52.542;11.974;2023-10-09T08:12:49;4.38;;;3.97;;
16957;SDS011;8595;52.542;11.974;2023-10-09T08:15:44;7.88;;;4.00;;
16957;SDS011;8595;52.542;11.974;2023-10-09T08:18:16;5.45;;;3.67;;
16957;SDS011;8595;52.542;11.974;2023-10-09T08:20:53;6.72;;;4.22;;
16957;SDS011;8595;52.542;11.974;2023-10-09T08:23:34;4.75;;;4.25;;
16957;SDS011;8595;52.542;11.974;2023-10-09T08:26:14;5.80;;;4.13;;
16957;SDS011;8595;52.542;11.974;2023-10-09T08:28:53;3.80;;;3.25;;
16957;SDS011;8595;52.542;11.974;2023-10-09T08:31:41;5.18;;;3.60;;
16957;SDS011;8595;52.542;11.974;2023-10-09T08:34:11;4.75;;;3.53;;
16957;SDS011;8595;52.542;11.974;2023-10-09T08:36:50;6.95;;;3.30;;
16957;SDS011;8595;52.542;11.974;2023-10-09T08:39:20;4.03;;;3.63;;
16957;SDS011;8595;52.542;11.974;2023-10-09T08:42:00;4.07;;;3.45;;
16957;SDS011;8595;52.542;11.974;2023-10-09T08:44:28;4.38;;;3.22;;
16957;SDS011;8595;52.542;11.974;2023-10-09T08:46:57;5.43;;;3.88;;
16957;SDS011;8595;52.542;11.974;2023-10-09T08:49:25;4.20;;;3.80;;
16957;SDS011;8595;52.542;11.974;2023-10-09T08:51:53;3.90;;;3.50;;
16957;SDS011;8595;52.542;11.974;2023-10-09T08:54:20;4.25;;;3.60;;
16957;SDS011;8595;52.542;11.974;2023-10-09T08:56:47;5.50;;;3.80;;
16957;SDS011;8595;52.542;11.974;2023-10-09T08:59:19;5.07;;;3.80;;
16957;SDS011;8595;52.542;11.974;2023-10-09T09:01:46;5.45;;;3.72;;
16957;SDS011;8595;52.542;11.974;2023-10-09T09:07:04;4.32;;;3.92;;
16957;SDS011;8595;52.542;11.974;2023-10-09T09:09:31;4.22;;;3.40;;
16957;SDS011;8595;52.542;11.974;2023-10-09T09:11:59;4.20;;;3.42;;
16957;SDS011;8595;52.542;11.974;2023-10-09T09:14:37;4.45;;;3.92;;
16957;SDS011;8595;52.542;11.974;2023-10-09T09:17:04;5.68;;;3.60;;
16957;SDS011;8595;52.542;11.974;2023-10-09T09:19:36;4.47;;;3.60;;
16957;SDS011;8595;52.542;11.974;2023-10-09T09:22:03;4.38;;;3.97;;
16957;SDS011;8595;52.542;11.974;2023-10-09T09:24:40;5.68;;;4.05;;
16957;SDS011;8595;52.542;11.974;2023-10-09T09:27:25;4.22;;;3.83;;
16957;SDS011;8595;52.542;11.974;2023-10-09T09:30:23;6.30;;;4.00;;
16957;SDS011;8595;52.542;11.974;2023-10-09T09:32:50;4.60;;;3.95;;
16957;SDS011;8595;52.542;11.974;2023-10-09T09:35:37;6.22;;;4.75;;
16957;SDS011;8595;52.542;11.974;2023-10-09T09:38:04;5.78;;;4.40;;
16957;SDS011;8595;52.542;11.974;2023-10-09T09:40:39;6.15;;;4.20;;
16957;SDS011;8595;52.542;11.974;2023-10-09T09:43:07;4.75;;;4.30;;
16957;SDS011;8595;52.542;11.974;2023-10-09T09:45:47;5.53;;;5.03;;
16957;SDS011;8595;52.542;11.974;2023-10-09T09:48:16;5.85;;;4.50;;
16957;SDS011;8595;52.542;11.974;2023-10-09T09:50:43;5.20;;;3.90;;
16957;SDS011;8595;52.542;11.974;2023-10-09T09:53:10;5.50;;;4.95;;
16957;SDS011;8595;52.542;11.974;2023-10-09T09:55:42;5.38;;;4.50;;
16957;SDS011;8595;52.542;11.974;2023-10-09T09:58:17;5.13;;;4.47;;
16957;SDS011;8595;52.542;11.974;2023-10-09T10:00:45;7.80;;;5.18;;
16957;SDS011;8595;52.542;11.974;2023-10-09T10:03:19;6.82;;;5.28;;
16957;SDS011;8595;52.542;11.974;2023-10-09T10:05:50;5.75;;;4.93;;
16957;SDS011;8595;52.542;11.974;2023-10-09T10:08:20;5.85;;;5.03;;
16957;SDS011;8595;52.542;11.974;2023-10-09T10:10:56;5.85;;;4.85;;
16957;SDS011;8595;52.542;11.974;2023-10-09T10:16:27;6.30;;;4.93;;
16957;SDS011;8595;52.542;11.974;2023-10-09T10:19:00;5.68;;;5.07;;
16957;SDS011;8595;52.542;11.974;2023-10-09T10:21:47;7.47;;;6.45;;
16957;SDS011;8595;52.542;11.974;2023-10-09T10:27:20;7.80;;;5.90;;
16957;SDS011;8595;52.542;11.974;2023-10-09T10:33:03;6.13;;;4.90;;
16957;SDS011;8595;52.542;11.974;2023-10-09T10:35:37;7.43;;;5.38;;
16957;SDS011;8595;52.542;11.974;2023-10-09T10:38:24;9.43;;;5.47;;
16957;SDS011;8595;52.542;11.974;2023-10-09T10:41:07;6.50;;;5.43;;
16957;SDS011;8595;52.542;11.974;2023-10-09T10:43:36;6.13;;;5.53;;
16957;SDS011;8595;52.542;11.974;2023-10-09T10:46:20;7.03;;;5.50;;
16957;SDS011;8595;52.542;11.974;2023-10-09T10:48:57;6.55;;;5.70;;
16957;SDS011;8595;52.542;11.974;2023-10-09T10:51:35;5.75;;;4.82;;
16957;SDS011;8595;52.542;11.974;2023-10-09T10:54:04;5.88;;;5.28;;
16957;SDS011;8595;52.542;11.974;2023-10-09T10:56:49;7.15;;;5.72;;
16957;SDS011;8595;52.542;11.974;2023-10-09T10:59:17;6.38;;;5.45;;
16957;SDS011;8595;52.542;11.974;2023-10-09T11:01:50;6.82;;;6.13;;
16957;SDS011;8595;52.542;11.974;2023-10-09T11:04:20;6.88;;;6.10;;
16957;SDS011;8595;52.542;11.974;2023-10-09T11:06:53;8.52;;;6.15;;
16957;SDS011;8595;52.542;11.974;2023-10-09T11:09:25;6.38;;;5.63;;
16957;SDS011;8595;52.542;11.974;2023-10-09T11:12:04;7.60;;;5.97;;
16957;SDS011;8595;52.542;11.974;2023-10-09T11:14:46;7.10;;;5.53;;
16957;SDS011;8595;52.542;11.974;2023-10-09T11:17:31;6.78;;;6.13;;
16957;SDS011;8595;52.542;11.974;2023-10-09T11:20:02;8.68;;;5.38;;
16957;SDS011;8595;52.542;11.974;2023-10-09T11:22:48;7.80;;;6.57;;
16957;SDS011;8595;52.542;11.974;2023-10-09T11:25:38;6.43;;;5.68;;
16957;SDS011;8595;52.542;11.974;2023-10-09T11:28:18;6.25;;;5.60;;
16957;SDS011;8595;52.542;11.974;2023-10-09T11:31:08;7.05;;;6.35;;
16957;SDS011;8595;52.542;11.974;2023-10-09T11:33:43;8.60;;;7.07;;
16957;SDS011;8595;52.542;11.974;2023-10-09T11:36:13;7.40;;;6.70;;
16957;SDS011;8595;52.542;11.974;2023-10-09T11:38:39;7.07;;;6.38;;
16957;SDS011;8595;52.542;11.974;2023-10-09T11:41:13;9.63;;;7.15;;
16957;SDS011;8595;52.542;11.974;2023-10-09T11:43:49;7.65;;;6.47;;
16957;SDS011;8595;52.542;11.974;2023-10-09T11:46:18;8.75;;;6.00;;
16957;SDS011;8595;52.542;11.974;2023-10-09T11:49:13;7.47;;;5.70;;
16957;SDS011;8595;52.542;11.974;2023-10-09T11:51:52;7.30;;;6.53;;
16957;SDS011;8595;52.542;11.974;2023-10-09T11:54:36;6.32;;;5.72;;
16957;SDS011;8595;52.542;11.974;2023-10-09T11:57:03;6.88;;;5.85;;
16957;SDS011;8595;52.542;11.974;2023-10-09T11:59:31;7.75;;;6.97;;
16957;SDS011;8595;52.542;11.974;2023-10-09T12:02:03;7.13;;;6.43;;
16957;SDS011;8595;52.542;11.974;2023-10-09T12:04:30;6.75;;;5.95;;
16957;SDS011;8595;52.542;11.974;2023-10-09T12:06:58;8.30;;;6.40;;
16957;SDS011;8595;52.542;11.974;2023-10-09T12:09:32;6.68;;;5.97;;
16957;SDS011;8595;52.542;11.974;2023-10-09T12:12:00;6.28;;;5.43;;
16957;SDS011;8595;52.542;11.974;2023-10-09T12:14:28;7.47;;;5.97;;
16957;SDS011;8595;52.542;11.974;2023-10-09T12:16:58;6.70;;;6.00;;
16957;SDS011;8595;52.542;11.974;2023-10-09T12:19:30;6.63;;;5.38;;
16957;SDS011;8595;52.542;11.974;2023-10-09T12:21:59;6.85;;;6.15;;
16957;SDS011;8595;52.542;11.974;2023-10-09T12:24:27;9.25;;;6.25;;
16957;SDS011;8595;52.542;11.974;2023-10-09T12:26:55;8.15;;;6.65;;
16957;SDS011;8595;52.542;11.974;2023-10-09T12:29:22;7.18;;;6.47;;
16957;SDS011;8595;52.542;11.974;2023-10-09T12:31:49;8.18;;;7.38;;
16957;SDS011;8595;52.542;11.974;2023-10-09T12:34:23;8.90;;;8.00;;
16957;SDS011;8595;52.542;11.974;2023-10-09T12:36:52;8.82;;;7.88;;
16957;SDS011;8595;52.542;11.974;2023-10-09T12:39:20;7.47;;;6.72;;
16957;SDS011;8595;52.542;11.974;2023-10-09T12:41:47;7.88;;;7.07;;
16957;SDS011;8595;52.542;11.974;2023-10-09T12:44:18;9.82;;;8.82;;
16957;SDS011;8595;52.542;11.974;2023-10-09T12:46:46;9.50;;;7.43;;
16957;SDS011;8595;52.542;11.974;2023-10-09T12:49:18;7.93;;;7.22;;
16957;SDS011;8595;52.542;11.974;2023-10-09T12:51:44;8.00;;;5.90;;
16957;SDS011;8595;52.542;11.974;2023-10-09T12:54:11;8.40;;;7.60;;
16957;SDS011;8595;52.542;11.974;2023-10-09T12:56:41;8.43;;;7.60;;
16957;SDS011;8595;52.542;11.974;2023-10-09T12:59:08;9.70;;;8.30;;
16957;SDS011;8595;52.542;11.974;2023-10-09T13:01:40;7.05;;;6.45;;
16957;SDS011;8595;52.542;11.974;2023-10-09T13:04:10;7.05;;;6.45;;
16957;SDS011;8595;52.542;11.974;2023-10-09T13:06:39;6.90;;;6.20;;
16957;SDS011;8595;52.542;11.974;2023-10-09T13:09:09;7.07;;;6.40;;
16957;SDS011;8595;52.542;11.974;2023-10-09T13:11:36;7.22;;;6.53;;
16957;SDS011;8595;52.542;11.974;2023-10-09T13:14:07;5.30;;;4.80;;
16957;SDS011;8595;52.542;11.974;2023-10-09T13:16:42;6.80;;;6.20;;
16957;SDS011;8595;52.542;11.974;2023-10-09T13:19:08;6.47;;;5.30;;
16957;SDS011;8595;52.542;11.974;2023-10-09T13:21:36;6.72;;;5.88;;
16957;SDS011;8595;52.542;11.974;2023-10-09T13:24:05;5.85;;;5.35;;
16957;SDS011;8595;52.542;11.974;2023-10-09T13:26:37;4.72;;;4.32;;
16957;SDS011;8595;52.542;11.974;2023-10-09T13:29:07;6.45;;;5.85;;
16957;SDS011;8595;52.542;11.974;2023-10-09T13:31:35;5.20;;;4.70;;
16957;SDS011;8595;52.542;11.974;2023-10-09T13:34:03;7.13;;;6.43;;
16957;SDS011;8595;52.542;11.974;2023-10-09T13:36:35;8.57;;;5.72;;
16957;SDS011;8595;52.542;11.974;2023-10-09T13:39:03;5.68;;;5.18;;
16957;SDS011;8595;52.542;11.974;2023-10-09T13:41:45;5.40;;;4.90;;
16957;SDS011;8595;52.542;11.974;2023-10-09T13:44:14;5.93;;;5.43;;
16957;SDS011;8595;52.542;11.974;2023-10-09T13:46:40;5.25;;;4.82;;
16957;SDS011;8595;52.542;11.974;2023-10-09T13:49:08;6.05;;;5.55;;
16957;SDS011;8595;52.542;11.974;2023-10-09T13:51:37;5.45;;;4.95;;
16957;SDS011;8595;52.542;11.974;2023-10-09T13:54:08;6.43;;;5.82;;
16957;SDS011;8595;52.542;11.974;2023-10-09T13:56:35;6.47;;;5.88;;
16957;SDS011;8595;52.542;11.974;2023-10-09T13:59:04;5.85;;;5.35;;
16957;SDS011;8595;52.542;11.974;2023-10-09T14:01:37;4.22;;;3.92;;
16957;SDS011;8595;52.542;11.974;2023-10-09T14:04:05;4.93;;;4.53;;
16957;SDS011;8595;52.542;11.974;2023-10-09T14:06:32;5.80;;;5.20;;
16957;SDS011;8595;52.542;11.974;2023-10-09T14:09:00;7.05;;;5.13;;
16957;SDS011;8595;52.542;11.974;2023-10-09T14:11:30;6.53;;;5.93;;
16957;SDS011;8595;52.542;11.974;2023-10-09T14:13:58;6.40;;;5.80;;
16957;SDS011;8595;52.542;11.974;2023-10-09T14:16:26;5.68;;;5.18;;
16957;SDS011;8595;52.542;11.974;2023-10-09T14:18:55;5.15;;;4.75;;
16957;SDS011;8595;52.542;11.974;2023-10-09T14:21:24;6.75;;;6.15;;
16957;SDS011;8595;52.542;11.974;2023-10-09T14:23:53;6.53;;;5.72;;
16957;SDS011;8595;52.542;11.974;2023-10-09T14:26:22;6.63;;;6.07;;
16957;SDS011;8595;52.542;11.974;2023-10-09T14:28:53;6.32;;;5.72;;
16957;SDS011;8595;52.542;11.974;2023-10-09T14:31:22;7.55;;;5.45;;
16957;SDS011;8595;52.542;11.974;2023-10-09T14:33:53;6.97;;;6.28;;
16957;SDS011;8595;52.542;11.974;2023-10-09T14:36:22;7.30;;;6.63;;
16957;SDS011;8595;52.542;11.974;2023-10-09T14:38:50;8.50;;;7.70;;
16957;SDS011;8595;52.542;11.974;2023-10-09T14:41:20;8.05;;;7.30;;
16957;SDS011;8595;52.542;11.974;2023-10-09T14:43:49;8.65;;;7.85;;
16957;SDS011;8595;52.542;11.974;2023-10-09T14:46:17;8.35;;;7.55;;
16957;SDS011;8595;52.542;11.974;2023-10-09T14:48:48;7.50;;;6.80;;
16957;SDS011;8595;52.542;11.974;2023-10-09T14:51:18;7.97;;;7.07;;
16957;SDS011;8595;52.542;11.974;2023-10-09T14:53:56;6.53;;;5.93;;
16957;SDS011;8595;52.542;11.974;2023-10-09T14:56:24;8.32;;;7.57;;
16957;SDS011;8595;52.542;11.974;2023-10-09T14:58:55;6.38;;;5.78;;
16957;SDS011;8595;52.542;11.974;2023-10-09T15:01:23;8.20;;;7.25;;
16957;SDS011;8595;52.542;11.974;2023-10-09T15:03:56;7.95;;;7.25;;
16957;SDS011;8595;52.542;11.974;2023-10-09T15:06:24;9.18;;;7.97;;
16957;SDS011;8595;52.542;11.974;2023-10-09T15:08:55;7.40;;;6.65;;
16957;SDS011;8595;52.542;11.974;2023-10-09T15:11:23;7.68;;;6.97;;
16957;SDS011;8595;52.542;11.974;2023-10-09T15:13:53;7.20;;;6.60;;
16957;SDS011;8595;52.542;11.974;2023-10-09T15:16:21;6.78;;;6.18;;
16957;SDS011;8595;52.542;11.974;2023-10-09T15:18:51;7.15;;;6.50;;
16957;SDS011;8595;52.542;11.974;2023-10-09T15:21:19;6.18;;;5.57;;
16957;SDS011;8595;52.542;11.974;2023-10-09T15:23:48;6.20;;;5.60;;
16957;SDS011;8595;52.542;11.974;2023-10-09T15:26:17;6.57;;;6.03;;
16957;SDS011;8595;52.542;11.974;2023-10-09T15:28:44;5.97;;;5.40;;
16957;SDS011;8595;52.542;11.974;2023-10-09T15:31:11;7.80;;;7.10;;
16957;SDS011;8595;52.542;11.974;2023-10-09T15:33:41;7.18;;;6.57;;
16957;SDS011;8595;52.542;11.974;2023-10-09T15:36:12;5.93;;;5.43;;
16957;SDS011;8595;52.542;11.974;2023-10-09T15:38:39;6.60;;;6.00;;
16957;SDS011;8595;52.542;11.974;2023-10-09T15:41:06;6.18;;;5.57;;
16957;SDS011;8595;52.542;11.974;2023-10-09T15:43:36;8.10;;;7.40;;